Time;durP1;ratioP1;P1;durP2;ratioP2;P2;SDS_P1;SDS_P2;PMS_P1;PMS_P2;Temp;Humidity;BMP_temperature;BMP_pressure;BME280_temperature;BME280_humidity;BME280_pressure;Samples;Min_cycle;Max_cycle;Signal;HPM_P1;HPM_P2
2022/12/06 00:02:28;;;;;;;4.60;3.00;;;;;;;;;;9985369;29;20054;-85
2022/12/06 00:07:31;;;;;;;3.83;2.65;;;;;;;;;;9980282;29;20097;-84
2022/12/06 00:12:36;;;;;;;5.00;3.03;;;;;;;;;;9967219;29;20052;-85
2022/12/06 00:17:40;;;;;;;4.47;2.80;;;;;;;;;;9984074;29;20064;-84
2022/12/06 00:22:45;;;;;;;3.72;2.67;;;;;;;;;;9982776;29;20054;-84
2022/12/06 00:27:50;;;;;;;4.75;3.17;;;;;;;;;;9967632;29;20093;-85
2022/12/06 00:32:54;;;;;;;4.35;2.78;;;;;;;;;;9981507;29;20053;-84
2022/12/06 00:37:58;;;;;;;3.28;2.65;;;;;;;;;;9983696;29;20072;-85
2022/12/06 00:43:03;;;;;;;4.80;3.10;;;;;;;;;;9968164;29;20076;-85
2022/12/06 00:48:06;;;;;;;4.35;3.00;;;;;;;;;;9989064;29;20060;-84
2022/12/06 00:53:10;;;;;;;3.63;2.55;;;;;;;;;;9966592;29;20050;-84
2022/12/06 00:58:15;;;;;;;6.65;4.45;;;;;;;;;;9983873;29;20061;-87
2022/12/06 01:03:19;;;;;;;3.83;2.92;;;;;;;;;;9982230;29;20069;-84
2022/12/06 01:08:22;;;;;;;4.75;2.70;;;;;;;;;;9980540;29;20058;-84
2022/12/06 01:13:27;;;;;;;6.22;2.45;;;;;;;;;;9965775;29;20578;-84
2022/12/06 01:18:31;;;;;;;3.70;2.65;;;;;;;;;;9984030;29;20149;-88
2022/12/06 01:23:35;;;;;;;6.22;4.00;;;;;;;;;;9987110;29;20053;-86
2022/12/06 01:28:39;;;;;;;4.15;2.95;;;;;;;;;;9982523;29;20054;-84
2022/12/06 01:33:43;;;;;;;3.47;2.40;;;;;;;;;;9982396;29;20084;-88
2022/12/06 01:38:52;;;;;;;4.78;2.72;;;;;;;;;;9986740;29;20058;-88
2022/12/06 01:43:58;;;;;;;4.32;3.05;;;;;;;;;;9985155;29;20042;-84
2022/12/06 01:49:09;;;;;;;3.78;2.30;;;;;;;;;;9979551;29;20145;-84
2022/12/06 01:54:15;;;;;;;4.45;2.42;;;;;;;;;;9976302;29;20054;-83
2022/12/06 01:59:21;;;;;;;6.90;3.90;;;;;;;;;;9975697;29;20169;-83
2022/12/06 02:04:25;;;;;;;5.68;3.15;;;;;;;;;;9982019;29;20060;-86
2022/12/06 02:09:30;;;;;;;4.15;2.78;;;;;;;;;;9986751;29;20081;-86
2022/12/06 02:14:35;;;;;;;4.28;3.03;;;;;;;;;;9988428;29;20056;-87
2022/12/06 02:19:57;;;;;;;4.28;2.80;;;;;;;;;;9986530;29;20050;-86
2022/12/06 02:25:22;;;;;;;6.68;4.00;;;;;;;;;;9992547;29;20102;-86
2022/12/06 02:30:41;;;;;;;4.13;2.28;;;;;;;;;;9983312;29;20583;-85
2022/12/06 02:35:52;;;;;;;4.35;2.75;;;;;;;;;;9993199;29;20046;-86
2022/12/06 02:40:59;;;;;;;4.35;2.63;;;;;;;;;;9975802;29;20430;-86
2022/12/06 02:46:05;;;;;;;4.05;2.38;;;;;;;;;;9992859;29;20050;-87
2022/12/06 02:51:12;;;;;;;4.80;3.13;;;;;;;;;;9993542;29;20085;-86
2022/12/06 02:56:17;;;;;;;3.40;2.25;;;;;;;;;;9991775;29;20050;-86
2022/12/06 03:01:24;;;;;;;3.92;2.58;;;;;;;;;;9990401;29;20411;-89
2022/12/06 03:06:51;;;;;;;4.22;2.78;;;;;;;;;;9991261;29;20132;-86
2022/12/06 03:12:03;;;;;;;4.25;2.47;;;;;;;;;;9993538;29;20128;-89
2022/12/06 03:17:16;;;;;;;4.20;2.63;;;;;;;;;;9993899;29;20073;-86
2022/12/06 03:22:25;;;;;;;4.22;2.33;;;;;;;;;;9993789;29;20060;-85
2022/12/06 03:27:31;;;;;;;4.65;3.10;;;;;;;;;;9991101;29;20060;-86
2022/12/06 03:32:38;;;;;;;4.75;2.80;;;;;;;;;;9976885;29;20073;-86
2022/12/06 03:37:44;;;;;;;4.57;2.65;;;;;;;;;;9988463;29;20057;-87
2022/12/06 03:42:50;;;;;;;4.03;2.70;;;;;;;;;;9989324;29;20050;-85
2022/12/06 03:48:00;;;;;;;4.45;3.00;;;;;;;;;;9976030;29;20592;-86
2022/12/06 03:53:03;;;;;;;5.25;3.17;;;;;;;;;;9982078;29;20086;-86
2022/12/06 03:58:07;;;;;;;6.72;3.70;;;;;;;;;;9988141;29;20060;-87
2022/12/06 04:03:12;;;;;;;4.68;2.97;;;;;;;;;;9987883;29;20148;-86
2022/12/06 04:08:16;;;;;;;6.15;3.70;;;;;;;;;;9987262;29;20689;-88
2022/12/06 04:13:19;;;;;;;6.30;3.92;;;;;;;;;;9969665;29;20138;-87
2022/12/06 04:18:25;;;;;;;6.90;4.15;;;;;;;;;;9989839;29;20072;-87
2022/12/06 04:23:29;;;;;;;7.87;4.93;;;;;;;;;;9989125;29;20089;-90
2022/12/06 04:39:17;;;;;;;5.38;3.42;;;;;;;;;;9986464;29;20141;-86
2022/12/06 04:44:23;;;;;;;5.15;3.53;;;;;;;;;;9989507;29;20095;-87
2022/12/06 04:49:28;;;;;;;5.82;3.28;;;;;;;;;;9983880;29;20465;-89
2022/12/06 04:54:31;;;;;;;4.53;2.78;;;;;;;;;;9989116;29;20133;-89
2022/12/06 04:59:35;;;;;;;5.35;3.20;;;;;;;;;;9987911;29;20144;-86
2022/12/06 05:04:40;;;;;;;4.07;2.63;;;;;;;;;;9984945;29;20057;-88
2022/12/06 05:09:44;;;;;;;2.63;2.10;;;;;;;;;;9998817;29;20060;-87
2022/12/06 05:14:47;;;;;;;2.35;1.55;;;;;;;;;;10023368;29;20082;-84
2022/12/06 05:19:52;;;;;;;2.42;1.60;;;;;;;;;;10016719;29;20485;-85
2022/12/06 05:24:56;;;;;;;2.25;1.60;;;;;;;;;;10022645;29;20050;-85
2022/12/06 05:29:59;;;;;;;2.75;2.03;;;;;;;;;;10010960;29;20593;-83
2022/12/06 05:35:07;;;;;;;2.03;1.77;;;;;;;;;;9966144;29;20054;-84
2022/12/06 05:40:12;;;;;;;1.52;1.42;;;;;;;;;;9979134;29;20096;-85
2022/12/06 05:45:16;;;;;;;2.05;1.17;;;;;;;;;;9979974;29;20567;-84
2022/12/06 05:50:21;;;;;;;1.83;1.35;;;;;;;;;;9970854;29;20058;-84
2022/12/06 05:55:24;;;;;;;1.85;1.55;;;;;;;;;;9983166;29;20118;-84
2022/12/06 06:00:28;;;;;;;2.47;1.90;;;;;;;;;;9990722;29;20077;-84
2022/12/06 06:05:33;;;;;;;2.90;1.98;;;;;;;;;;9977527;29;20326;-84
2022/12/06 06:10:36;;;;;;;2.28;1.60;;;;;;;;;;9991367;29;20069;-84
2022/12/06 06:15:40;;;;;;;2.03;1.65;;;;;;;;;;9998591;29;20052;-89
2022/12/06 06:20:50;;;;;;;2.60;1.73;;;;;;;;;;10007407;29;20050;-86
2022/12/06 06:25:54;;;;;;;2.05;1.38;;;;;;;;;;10003051;29;20070;-86
2022/12/06 06:30:57;;;;;;;2.40;1.80;;;;;;;;;;10009502;29;20110;-84
2022/12/06 06:36:02;;;;;;;2.17;1.73;;;;;;;;;;10006378;29;20053;-83
2022/12/06 06:41:06;;;;;;;3.05;1.83;;;;;;;;;;10001078;29;20060;-84
2022/12/06 06:46:10;;;;;;;4.82;2.83;;;;;;;;;;10003150;29;20052;-84
2022/12/06 06:51:15;;;;;;;5.10;2.67;;;;;;;;;;10000463;29;20061;-85
2022/12/06 06:56:19;;;;;;;3.30;2.03;;;;;;;;;;9994618;29;20053;-84
2022/12/06 07:01:24;;;;;;;3.00;2.20;;;;;;;;;;10004057;29;20093;-84
2022/12/06 07:06:29;;;;;;;2.83;1.65;;;;;;;;;;10000414;29;20057;-87
2022/12/06 07:11:33;;;;;;;3.05;2.28;;;;;;;;;;9989148;29;20129;-85
2022/12/06 07:16:36;;;;;;;2.08;1.77;;;;;;;;;;10006184;29;20081;-91
2022/12/06 07:21:42;;;;;;;3.92;2.20;;;;;;;;;;10007026;29;20062;-90
2022/12/06 07:26:45;;;;;;;2.60;1.77;;;;;;;;;;10006148;29;20053;-86
2022/12/06 07:31:50;;;;;;;3.92;2.38;;;;;;;;;;9995797;29;20049;-86
2022/12/06 07:36:54;;;;;;;4.63;2.67;;;;;;;;;;10002776;29;20602;-85
2022/12/06 07:47:25;;;;;;;5.07;2.00;;;;;;;;;;9990568;29;20046;-85
2022/12/06 07:52:32;;;;;;;4.57;2.05;;;;;;;;;;9992478;29;20056;-83
2022/12/06 07:57:36;;;;;;;4.32;2.80;;;;;;;;;;9987848;29;20049;-83
2022/12/06 08:02:44;;;;;;;2.35;2.10;;;;;;;;;;9986669;29;20645;-84
2022/12/06 08:07:49;;;;;;;1.92;1.35;;;;;;;;;;9986490;29;20546;-83
2022/12/06 08:12:53;;;;;;;3.45;2.00;;;;;;;;;;9973752;29;20077;-83
2022/12/06 08:17:57;;;;;;;2.60;1.73;;;;;;;;;;9995478;29;20050;-82
2022/12/06 08:23:01;;;;;;;2.92;1.90;;;;;;;;;;9997542;29;20054;-91
2022/12/06 08:28:05;;;;;;;2.97;1.95;;;;;;;;;;9994432;29;20170;-84
2022/12/06 08:33:09;;;;;;;2.80;2.08;;;;;;;;;;9998903;29;20050;-85
2022/12/06 08:38:14;;;;;;;3.90;2.63;;;;;;;;;;9991445;29;20080;-86
2022/12/06 08:43:17;;;;;;;3.00;2.40;;;;;;;;;;9997592;29;20078;-84
2022/12/06 08:48:21;;;;;;;17.30;10.70;;;;;;;;;;9986649;29;20058;-83
2022/12/06 08:53:26;;;;;;;9.57;6.82;;;;;;;;;;9986730;29;20065;-83
2022/12/06 08:58:30;;;;;;;6.97;4.97;;;;;;;;;;9985180;29;20502;-82
2022/12/06 09:03:33;;;;;;;10.57;8.80;;;;;;;;;;9985873;29;20445;-84
2022/12/06 09:08:39;;;;;;;9.07;6.68;;;;;;;;;;9972738;29;20072;-85
2022/12/06 09:13:42;;;;;;;7.07;4.90;;;;;;;;;;9986935;29;20061;-85
2022/12/06 09:18:47;;;;;;;7.32;5.03;;;;;;;;;;9985895;29;20056;-85
2022/12/06 09:23:55;;;;;;;6.45;4.65;;;;;;;;;;9988712;29;20104;-84
2022/12/06 09:28:59;;;;;;;4.10;3.45;;;;;;;;;;10011015;29;20057;-88
2022/12/06 09:34:03;;;;;;;5.53;3.70;;;;;;;;;;10011219;29;20081;-84
2022/12/06 09:39:13;;;;;;;5.85;3.53;;;;;;;;;;9986074;29;20054;-85
2022/12/06 09:44:32;;;;;;;8.48;5.43;;;;;;;;;;9987583;29;20061;-85
2022/12/06 09:49:44;;;;;;;3.85;2.35;;;;;;;;;;9982288;29;20052;-84
2022/12/06 09:55:00;;;;;;;5.72;3.60;;;;;;;;;;9988098;29;20060;-85
2022/12/06 10:00:07;;;;;;;8.60;4.20;;;;;;;;;;9988415;29;20471;-84
2022/12/06 10:05:27;;;;;;;14.98;7.70;;;;;;;;;;9995607;29;20054;-84
2022/12/06 10:10:44;;;;;;;12.38;6.10;;;;;;;;;;9988762;29;20062;-84
2022/12/06 10:15:59;;;;;;;12.05;6.03;;;;;;;;;;9993904;29;20093;-84
2022/12/06 10:21:13;;;;;;;7.15;4.05;;;;;;;;;;9989696;29;20056;-84
2022/12/06 10:26:22;;;;;;;5.88;2.92;;;;;;;;;;9993317;29;20050;-84
2022/12/06 10:31:34;;;;;;;4.30;2.63;;;;;;;;;;9979312;29;20406;-87
2022/12/06 10:36:48;;;;;;;6.38;4.63;;;;;;;;;;10048740;29;20730;-86
2022/12/06 10:41:59;;;;;;;4.70;3.58;;;;;;;;;;10023330;29;20144;-86
2022/12/06 10:47:11;;;;;;;5.22;3.67;;;;;;;;;;10018104;29;20110;-86
2022/12/06 10:52:38;;;;;;;3.22;2.30;;;;;;;;;;10021635;29;20062;-88
2022/12/06 10:57:48;;;;;;;3.08;2.00;;;;;;;;;;10024604;29;20108;-85
2022/12/06 11:02:58;;;;;;;2.50;1.85;;;;;;;;;;9992262;29;20426;-84
2022/12/06 11:08:09;;;;;;;3.10;1.83;;;;;;;;;;9992625;29;20402;-83
2022/12/06 11:13:20;;;;;;;3.28;1.95;;;;;;;;;;9986436;29;20050;-85
2022/12/06 11:18:29;;;;;;;2.47;1.92;;;;;;;;;;9992292;29;20147;-85
2022/12/06 11:23:40;;;;;;;3.33;2.28;;;;;;;;;;9993660;29;21409;-88
2022/12/06 11:28:54;;;;;;;3.50;2.60;;;;;;;;;;10010556;29;20145;-86
2022/12/06 11:33:59;;;;;;;5.05;2.78;;;;;;;;;;10018991;29;20536;-86
2022/12/06 11:39:04;;;;;;;4.47;3.10;;;;;;;;;;10027336;29;20129;-89
2022/12/06 11:44:12;;;;;;;5.00;2.85;;;;;;;;;;10015465;29;20153;-86
2022/12/06 11:49:23;;;;;;;5.00;2.75;;;;;;;;;;10009993;29;20050;-85
2022/12/06 11:54:29;;;;;;;5.85;3.55;;;;;;;;;;10028362;29;20062;-86
2022/12/06 11:59:34;;;;;;;3.10;2.50;;;;;;;;;;10017724;29;20049;-86
2022/12/06 12:04:40;;;;;;;2.85;1.92;;;;;;;;;;9991543;29;20133;-84
2022/12/06 12:09:51;;;;;;;2.80;1.88;;;;;;;;;;9990671;29;20170;-85
2022/12/06 12:14:58;;;;;;;6.90;3.80;;;;;;;;;;9987903;29;20053;-85
2022/12/06 12:20:05;;;;;;;5.10;3.30;;;;;;;;;;9988145;29;20236;-84
2022/12/06 12:25:23;;;;;;;3.15;2.40;;;;;;;;;;9981972;29;20506;-84
2022/12/06 12:30:34;;;;;;;5.32;3.80;;;;;;;;;;9973458;29;20054;-87
2022/12/06 12:35:39;;;;;;;6.38;4.10;;;;;;;;;;10010007;29;20821;-86
2022/12/06 12:40:46;;;;;;;6.13;3.83;;;;;;;;;;10011340;23;20073;-84
2022/12/06 12:46:24;;;;;;;4.95;3.15;;;;;;;;;;10029674;29;20056;-83
2022/12/06 12:51:31;;;;;;;3.97;2.47;;;;;;;;;;9859600;29;20142;-84
2022/12/06 12:56:38;;;;;;;11.40;6.47;;;;;;;;;;9977177;29;20054;-84
2022/12/06 13:01:47;;;;;;;7.53;4.43;;;;;;;;;;10004643;29;20054;-83
2022/12/06 13:06:55;;;;;;;6.53;4.05;;;;;;;;;;10000428;29;20081;-84
2022/12/06 13:12:02;;;;;;;9.40;5.43;;;;;;;;;;9990371;29;20152;-84
2022/12/06 13:17:10;;;;;;;4.10;3.20;;;;;;;;;;9989280;29;20060;-83
2022/12/06 13:22:18;;;;;;;11.35;7.00;;;;;;;;;;9982240;29;20054;-83
2022/12/06 13:27:24;;;;;;;6.72;4.40;;;;;;;;;;9989284;29;20233;-84
2022/12/06 13:32:32;;;;;;;5.57;3.30;;;;;;;;;;9973611;29;20260;-84
2022/12/06 13:37:42;;;;;;;6.72;3.85;;;;;;;;;;9973563;29;20258;-84
2022/12/06 13:42:46;;;;;;;8.95;5.57;;;;;;;;;;9989511;29;20452;-84
2022/12/06 13:47:51;;;;;;;11.00;6.05;;;;;;;;;;9983444;29;20046;-83
2022/12/06 13:53:01;;;;;;;10.20;6.32;;;;;;;;;;9987953;29;20082;-84
2022/12/06 13:58:38;;;;;;;8.95;6.07;;;;;;;;;;9983511;29;20060;-84
2022/12/06 14:03:53;;;;;;;9.90;6.40;;;;;;;;;;9987937;29;20320;-83
2022/12/06 14:08:59;;;;;;;7.13;4.38;;;;;;;;;;9979762;29;20080;-84
2022/12/06 14:14:09;;;;;;;8.30;5.10;;;;;;;;;;9982802;29;20415;-85
2022/12/06 14:19:22;;;;;;;5.15;3.15;;;;;;;;;;9976319;29;20355;-84
2022/12/06 14:24:35;;;;;;;6.28;4.07;;;;;;;;;;9989653;29;20050;-84
2022/12/06 14:29:40;;;;;;;4.28;3.05;;;;;;;;;;9992243;29;20703;-85
2022/12/06 14:34:47;;;;;;;5.30;3.42;;;;;;;;;;9990456;29;20057;-83
2022/12/06 14:39:52;;;;;;;6.35;3.47;;;;;;;;;;9988200;29;20042;-83
2022/12/06 14:45:10;;;;;;;9.57;5.22;;;;;;;;;;9990790;29;20510;-84
2022/12/06 14:50:27;;;;;;;6.20;3.72;;;;;;;;;;9986441;29;20055;-85
2022/12/06 14:55:34;;;;;;;4.70;2.60;;;;;;;;;;9991591;29;20064;-84
2022/12/06 15:00:53;;;;;;;3.80;2.60;;;;;;;;;;9991373;29;20050;-84
2022/12/06 15:06:16;;;;;;;2.65;1.80;;;;;;;;;;9990794;29;20053;-85
2022/12/06 15:17:02;;;;;;;4.32;2.83;;;;;;;;;;9984403;29;20050;-84
2022/12/06 15:22:16;;;;;;;3.00;1.80;;;;;;;;;;9985618;29;20046;-84
2022/12/06 15:27:26;;;;;;;1.92;1.60;;;;;;;;;;9970787;29;20094;-84
2022/12/06 15:32:30;;;;;;;2.13;1.70;;;;;;;;;;9996877;29;20238;-84
2022/12/06 15:37:36;;;;;;;2.20;1.63;;;;;;;;;;9984848;29;20058;-85
2022/12/06 15:42:40;;;;;;;2.53;1.83;;;;;;;;;;9987292;29;20054;-85
2022/12/06 15:47:44;;;;;;;2.85;1.90;;;;;;;;;;9989858;29;20426;-84
2022/12/06 15:52:49;;;;;;;3.70;2.40;;;;;;;;;;9974891;29;20153;-84
2022/12/06 15:57:52;;;;;;;2.63;2.30;;;;;;;;;;9974641;29;20057;-84
2022/12/06 16:02:56;;;;;;;3.25;2.53;;;;;;;;;;9993085;29;20263;-85
2022/12/06 16:08:00;;;;;;;2.85;2.15;;;;;;;;;;9990150;29;20087;-85
2022/12/06 16:13:22;;;;;;;2.88;2.13;;;;;;;;;;9994082;29;20053;-86
2022/12/06 16:18:26;;;;;;;1.88;1.50;;;;;;;;;;9985789;29;20050;-85
2022/12/06 16:29:15;;;;;;;2.50;1.73;;;;;;;;;;10006763;29;20065;-83
2022/12/06 16:34:19;;;;;;;1.88;1.40;;;;;;;;;;10014225;29;20068;-82
2022/12/06 16:39:24;;;;;;;2.20;1.77;;;;;;;;;;10027548;29;20064;-84
2022/12/06 16:44:28;;;;;;;2.17;1.70;;;;;;;;;;10028510;29;20062;-83
2022/12/06 16:49:32;;;;;;;2.67;1.92;;;;;;;;;;10027115;29;20057;-83
2022/12/06 16:54:52;;;;;;;4.72;2.60;;;;;;;;;;9999990;29;20058;-82
2022/12/06 16:59:56;;;;;;;4.80;3.40;;;;;;;;;;9994300;29;20046;-83
2022/12/06 17:05:01;;;;;;;3.15;2.33;;;;;;;;;;9994152;29;20054;-85
2022/12/06 17:10:08;;;;;;;3.50;2.60;;;;;;;;;;9964770;29;20137;-85
2022/12/06 17:15:14;;;;;;;2.83;2.38;;;;;;;;;;9981256;29;20058;-84
2022/12/06 17:20:18;;;;;;;6.03;3.28;;;;;;;;;;9975679;29;20568;-83
2022/12/06 17:25:23;;;;;;;6.85;3.55;;;;;;;;;;9992288;29;21154;-83
2022/12/06 17:30:32;;;;;;;5.18;3.42;;;;;;;;;;9995783;29;20081;-81
2022/12/06 17:35:40;;;;;;;5.72;3.92;;;;;;;;;;9999443;29;20057;-84
2022/12/06 17:40:45;;;;;;;8.40;4.53;;;;;;;;;;9991866;29;20084;-85
2022/12/06 17:45:51;;;;;;;5.93;3.45;;;;;;;;;;9993872;29;20076;-85
2022/12/06 17:50:55;;;;;;;5.40;3.53;;;;;;;;;;9988288;29;20594;-84
2022/12/06 17:56:29;;;;;;;3.97;3.13;;;;;;;;;;9997340;29;20673;-84
2022/12/06 18:01:34;;;;;;;4.53;2.42;;;;;;;;;;9997730;29;20050;-85
2022/12/06 18:06:53;;;;;;;3.95;2.50;;;;;;;;;;10006217;29;20081;-85
2022/12/06 18:12:00;;;;;;;3.97;2.95;;;;;;;;;;10001418;29;20045;-84
2022/12/06 18:17:04;;;;;;;6.00;3.50;;;;;;;;;;9986789;29;20069;-84
2022/12/06 18:22:08;;;;;;;6.90;3.38;;;;;;;;;;9994966;29;20054;-84
2022/12/06 18:27:13;;;;;;;5.05;3.15;;;;;;;;;;10010841;29;20068;-84
2022/12/06 18:32:16;;;;;;;6.35;4.03;;;;;;;;;;10005183;29;20243;-84
2022/12/06 18:37:20;;;;;;;6.05;3.97;;;;;;;;;;10004426;29;20118;-82
2022/12/06 18:42:24;;;;;;;5.15;3.17;;;;;;;;;;9996099;29;20082;-81
2022/12/06 18:47:28;;;;;;;4.05;2.95;;;;;;;;;;10005987;29;20114;-82
2022/12/06 18:52:32;;;;;;;3.90;2.88;;;;;;;;;;10006459;29;20085;-82
2022/12/06 18:57:38;;;;;;;5.00;3.63;;;;;;;;;;10004822;29;20422;-81
2022/12/06 19:02:41;;;;;;;5.80;3.53;;;;;;;;;;10005139;29;20054;-82
2022/12/06 19:07:48;;;;;;;6.00;3.88;;;;;;;;;;9999200;29;20065;-80
2022/12/06 19:12:54;;;;;;;6.40;4.28;;;;;;;;;;10027582;23;20053;-93
2022/12/06 19:17:58;;;;;;;8.30;4.03;;;;;;;;;;10041680;29;20102;-88
2022/12/06 19:23:01;;;;;;;5.90;3.65;;;;;;;;;;10039369;29;20132;-86
2022/12/06 19:28:08;;;;;;;6.32;4.00;;;;;;;;;;10018975;29;20122;-86
2022/12/06 19:33:12;;;;;;;7.95;4.70;;;;;;;;;;10027270;29;20045;-86
2022/12/06 19:38:16;;;;;;;6.57;4.63;;;;;;;;;;10042923;29;20049;-85
2022/12/06 19:48:46;;;;;;;8.82;5.60;;;;;;;;;;10033229;29;20050;-89
2022/12/06 19:53:49;;;;;;;7.50;4.60;;;;;;;;;;10034016;29;20050;-91
2022/12/06 19:58:56;;;;;;;12.15;5.97;;;;;;;;;;10059613;29;20132;-90
2022/12/06 20:03:59;;;;;;;14.57;7.85;;;;;;;;;;10037523;29;20059;-89
2022/12/06 20:09:03;;;;;;;12.07;7.18;;;;;;;;;;10033219;29;20639;-90
2022/12/06 20:14:10;;;;;;;10.00;5.75;;;;;;;;;;10032581;29;20054;-90
2022/12/06 20:19:15;;;;;;;6.13;4.43;;;;;;;;;;10061433;29;20369;-88
2022/12/06 20:24:20;;;;;;;5.03;3.58;;;;;;;;;;10036158;29;20136;-90
2022/12/06 20:29:28;;;;;;;5.00;3.13;;;;;;;;;;10041012;29;20058;-91
2022/12/06 20:34:33;;;;;;;5.00;3.45;;;;;;;;;;10054010;29;20496;-89
2022/12/06 20:39:37;;;;;;;3.70;2.92;;;;;;;;;;10038784;29;20041;-87
2022/12/06 20:44:44;;;;;;;4.57;3.47;;;;;;;;;;10025460;29;20049;-87
2022/12/06 20:49:48;;;;;;;3.45;2.83;;;;;;;;;;10026314;29;20057;-86
2022/12/06 20:54:51;;;;;;;4.38;3.03;;;;;;;;;;10024483;29;20061;-87
2022/12/06 20:59:56;;;;;;;4.65;3.50;;;;;;;;;;10024945;29;20061;-86
2022/12/06 21:05:02;;;;;;;4.22;3.17;;;;;;;;;;10025864;29;20057;-86
2022/12/06 21:10:08;;;;;;;3.22;2.80;;;;;;;;;;10018590;29;20525;-86
2022/12/06 21:15:13;;;;;;;;;;;;;;;;;;10007682;29;20072;-86
2022/12/06 21:20:17;;;;;;;3.90;2.90;;;;;;;;;;10023235;29;19924;-86
2022/12/06 21:25:21;;;;;;;4.05;3.30;;;;;;;;;;10038647;29;20069;-90
2022/12/06 21:30:28;;;;;;;5.40;3.25;;;;;;;;;;10049554;29;20096;-88
2022/12/06 21:35:34;;;;;;;4.65;2.92;;;;;;;;;;10032328;29;20140;-86
2022/12/06 21:40:38;;;;;;;5.20;2.97;;;;;;;;;;10044457;29;20693;-86
2022/12/06 21:45:43;;;;;;;3.83;2.90;;;;;;;;;;10020284;29;20140;-86
2022/12/06 21:50:47;;;;;;;6.78;4.57;;;;;;;;;;10023413;29;20053;-86
2022/12/06 21:55:51;;;;;;;7.65;4.20;;;;;;;;;;10022548;29;20632;-86
2022/12/06 22:00:55;;;;;;;8.23;4.82;;;;;;;;;;10024542;29;20533;-86
2022/12/06 22:06:03;;;;;;;5.97;3.90;;;;;;;;;;10020496;29;20091;-87
2022/12/06 22:11:08;;;;;;;7.53;4.43;;;;;;;;;;10013742;29;20402;-86
2022/12/06 22:16:14;;;;;;;5.35;3.42;;;;;;;;;;10024601;29;20365;-88
2022/12/06 22:21:20;;;;;;;5.70;3.63;;;;;;;;;;10088353;29;20496;-90
2022/12/06 22:26:26;;;;;;;5.93;3.60;;;;;;;;;;10072206;29;20140;-89
2022/12/06 22:31:33;;;;;;;6.93;4.07;;;;;;;;;;10052162;29;20081;-89
2022/12/06 22:36:39;;;;;;;5.80;3.70;;;;;;;;;;10036356;29;20505;-87
2022/12/06 22:41:43;;;;;;;8.23;4.43;;;;;;;;;;10061966;29;20140;-89
2022/12/06 22:46:48;;;;;;;10.65;5.30;;;;;;;;;;10083771;29;20064;-90
2022/12/06 22:51:52;;;;;;;7.95;4.95;;;;;;;;;;10069711;29;20041;-88
2022/12/06 22:56:55;;;;;;;7.95;4.60;;;;;;;;;;10065314;29;20080;-86
2022/12/06 23:02:00;;;;;;;6.60;4.38;;;;;;;;;;10033279;29;20106;-86
2022/12/06 23:07:04;;;;;;;5.43;3.72;;;;;;;;;;10019702;29;20140;-86
2022/12/06 23:12:08;;;;;;;4.75;3.40;;;;;;;;;;10032785;29;20045;-87
2022/12/06 23:17:13;;;;;;;5.05;3.38;;;;;;;;;;10039080;29;20502;-88
2022/12/06 23:22:17;;;;;;;3.90;2.90;;;;;;;;;;10054922;29;20064;-90
2022/12/06 23:27:21;;;;;;;5.65;3.70;;;;;;;;;;10091848;29;20577;-90
2022/12/06 23:32:26;;;;;;;4.38;3.03;;;;;;;;;;10088781;29;20699;-87
2022/12/06 23:37:29;;;;;;;3.85;3.00;;;;;;;;;;10061127;29;20140;-89
2022/12/06 23:42:33;;;;;;;3.83;2.78;;;;;;;;;;10052664;29;20064;-88
2022/12/06 23:47:38;;;;;;;3.90;2.60;;;;;;;;;;10052761;29;20065;-88
2022/12/06 23:52:41;;;;;;;4.27;3.07;;;;;;;;;;10052506;29;20109;-89
2022/12/06 23:57:45;;;;;;;3.25;2.25;;;;;;;;;;10066068;29;20083;-87
